»·PEaware :: AAY503 KSMX-KLAS

AAY503 :: KSMX-KLAS

FLIGHT INFORMATION

Flight Status: Arrived
Operator:
Allegiant Air
More flights by this operator :: More flights under this callsign
Pilot: David J. (16724)
Aircraft: MCDONNELL-DOUGLAS MD-88
(MD88)
More flights by this aircraft type
Origin: KSMX Santa Maria Pub/Capt Hancock
United States
Destination: KLAS McCarran Intl
United States
More flights between these airports :: More routes between these airports
Route: +BUELT4 RZS PMD MISEN KEPEC6
File this flight plan on PilotEdge
Remarks: Using cycle 1710R1
Altitude:
(Current/Filed)
270ft
Speed:
(Current/Filed)
420kts
Departed: 04-Dec-17 01:44 PM
Arrived: 04-Dec-17 02:43 PM
Distance/Time
Traveled:
269nm/0:58
Distance/Time
To Go:
Arrived

Flight Plot

Page will automatically refresh every two minutes.

Flight plan parsing failed; only flown route is shown


Map Options




Map Legend


Flown Route
Filed Route
Departure Airport
Arrival Airport
Navaid (VOR, NDB)
Fix

Horizontal Profiles

Position Reports

Time Latitude Longitude Heading Altitude Ground
Speed
04-Dec-17 13:02 34.898748 -120.448276 134 267ft 0kts
04-Dec-17 13:03 34.898748 -120.448276 134 267ft 0kts
04-Dec-17 13:04 34.898748 -120.448276 134 267ft 0kts
04-Dec-17 13:05 34.898748 -120.448276 134 267ft 0kts
04-Dec-17 13:06 34.898748 -120.448276 134 267ft 0kts
04-Dec-17 13:07 34.898748 -120.448276 134 267ft 0kts
04-Dec-17 13:08 34.898748 -120.448276 134 267ft 0kts
04-Dec-17 13:09 34.898748 -120.448276 134 267ft 0kts
04-Dec-17 13:10 34.898748 -120.448276 134 267ft 0kts
04-Dec-17 13:11 34.898748 -120.448276 134 267ft 0kts
04-Dec-17 13:12 34.898748 -120.448276 134 267ft 0kts
04-Dec-17 13:13 34.898748 -120.448276 134 267ft 0kts
04-Dec-17 13:14 34.898748 -120.448276 134 267ft 0kts
04-Dec-17 13:15 34.898748 -120.448276 134 267ft 0kts
04-Dec-17 13:16 34.898748 -120.448276 134 267ft 0kts
04-Dec-17 13:17 34.898748 -120.448276 134 267ft 0kts
04-Dec-17 13:18 34.898748 -120.448276 134 267ft 0kts
04-Dec-17 13:19 34.898748 -120.448276 134 267ft 0kts
04-Dec-17 13:20 34.898748 -120.448276 134 267ft 0kts
04-Dec-17 13:21 34.898748 -120.448276 134 267ft 0kts
04-Dec-17 13:22 34.898748 -120.448276 134 267ft 0kts
04-Dec-17 13:23 34.898748 -120.448276 134 267ft 0kts
04-Dec-17 13:24 34.898748 -120.448276 134 267ft 0kts
04-Dec-17 13:25 34.898748 -120.448276 134 267ft 0kts
04-Dec-17 13:26 34.898748 -120.448276 134 267ft 0kts
04-Dec-17 13:27 34.898748 -120.448276 134 267ft 0kts
04-Dec-17 13:28 34.898748 -120.448276 134 267ft 0kts
04-Dec-17 13:29 34.898748 -120.448276 134 267ft 0kts
04-Dec-17 13:30 34.898748 -120.448276 134 267ft 0kts
04-Dec-17 13:31 34.898748 -120.448276 134 267ft 0kts
04-Dec-17 13:32 34.898748 -120.448276 134 267ft 0kts
04-Dec-17 13:33 34.898748 -120.448276 134 267ft 0kts
04-Dec-17 13:34 34.898748 -120.448276 134 267ft 0kts
04-Dec-17 13:35 34.898748 -120.448276 134 267ft 0kts
04-Dec-17 13:36 34.898748 -120.448276 134 267ft 0kts
04-Dec-17 13:37 34.898748 -120.448276 134 267ft 0kts
04-Dec-17 13:38 34.898748 -120.448276 134 267ft 0kts
04-Dec-17 13:39 34.898748 -120.448276 134 267ft 0kts
04-Dec-17 13:40 34.898748 -120.448276 134 267ft 0kts
04-Dec-17 13:41 34.898748 -120.448276 134 267ft 0kts
04-Dec-17 13:42 34.898748 -120.448276 134 267ft 0kts
04-Dec-17 13:43 34.898212 -120.448160 179 267ft 6kts
04-Dec-17 13:44 34.896629 -120.447860 135 267ft 6kts
04-Dec-17 13:45 34.895360 -120.446365 135 267ft 6kts
04-Dec-17 13:46 34.893931 -120.444983 176 267ft 6kts
04-Dec-17 13:47 34.893510 -120.444950 178 267ft 0kts
04-Dec-17 13:48 34.892802 -120.445705 301 267ft 4kts
04-Dec-17 13:49 34.896948 -120.450702 315 267ft 96kts
04-Dec-17 13:50 34.930865 -120.485884 350 1016ft 213kts
04-Dec-17 13:51 34.978213 -120.443540 85 2627ft 272kts
04-Dec-17 13:52 34.929495 -120.391761 192 5157ft 282kts
04-Dec-17 13:53 34.856172 -120.426144 204 8065ft 288kts
04-Dec-17 13:54 34.784071 -120.404509 140 10214ft 323kts
04-Dec-17 13:55 34.718944 -120.340207 143 11540ft 362kts
04-Dec-17 13:56 34.644827 -120.258784 119 13487ft 387kts
04-Dec-17 13:57 34.611677 -120.134326 108 15341ft 407kts
04-Dec-17 13:58 34.575032 -120.003335 109 17115ft 425kts
04-Dec-17 13:59 34.536528 -119.866925 109 18804ft 442kts
04-Dec-17 14:00 34.510270 -119.723095 81 20359ft 457kts
04-Dec-17 14:01 34.523608 -119.570223 83 21849ft 473kts
04-Dec-17 14:02 34.534189 -119.412257 83 23238ft 490kts
04-Dec-17 14:03 34.543112 -119.279477 84 24275ft 502kts
04-Dec-17 14:04 34.553833 -119.122442 84 25392ft 515kts
04-Dec-17 14:05 34.565810 -118.950649 84 26518ft 528kts
04-Dec-17 14:06 34.577194 -118.790131 85 27057ft 533kts
04-Dec-17 14:07 34.589729 -118.616570 85 27065ft 536kts
04-Dec-17 14:08 34.602755 -118.440056 85 27124ft 535kts
04-Dec-17 14:09 34.615244 -118.273774 85 27177ft 535kts
04-Dec-17 14:10 34.628015 -118.106949 85 27180ft 536kts
04-Dec-17 14:11 34.667439 -117.936654 68 27153ft 536kts
04-Dec-17 14:12 34.714609 -117.768658 69 27145ft 535kts
04-Dec-17 14:13 34.762093 -117.598596 69 27153ft 535kts
04-Dec-17 14:14 34.809595 -117.429259 69 26929ft 536kts
04-Dec-17 14:15 34.855931 -117.264902 69 25602ft 534kts
04-Dec-17 14:16 34.902438 -117.100433 68 24166ft 492kts
04-Dec-17 14:17 34.945219 -116.950167 66 24182ft 464kts
04-Dec-17 14:18 34.987329 -116.802836 64 24184ft 462kts
04-Dec-17 14:19 35.029061 -116.657390 63 24188ft 459kts
04-Dec-17 14:20 35.070627 -116.513205 63 24185ft 459kts
04-Dec-17 14:21 35.118969 -116.379409 40 24200ft 437kts
04-Dec-17 14:22 35.195648 -116.285913 36 23101ft 428kts
04-Dec-17 14:23 35.275397 -116.185401 37 21315ft 409kts
04-Dec-17 14:24 35.352020 -116.088439 38 19523ft 391kts
04-Dec-17 14:25 35.425565 -115.995437 39 17733ft 376kts
04-Dec-17 14:26 35.496367 -115.905983 40 15946ft 363kts
04-Dec-17 14:27 35.565052 -115.819279 41 14154ft 352kts
04-Dec-17 14:28 35.631532 -115.735383 42 13002ft 335kts
04-Dec-17 14:29 35.696382 -115.653350 42 13010ft 341kts
04-Dec-17 14:30 35.765674 -115.576923 19 13012ft 335kts
04-Dec-17 14:31 35.856037 -115.568804 359 13008ft 331kts
04-Dec-17 14:32 35.942532 -115.564858 1 12984ft 286kts
04-Dec-17 14:33 35.993867 -115.503394 69 12405ft 281kts
04-Dec-17 14:34 36.018838 -115.415474 65 11430ft 272kts
04-Dec-17 14:35 36.029314 -115.328364 94 10514ft 276kts
04-Dec-17 14:36 36.012418 -115.239993 101 9422ft 276kts
04-Dec-17 14:37 35.990388 -115.152890 134 8296ft 278kts
04-Dec-17 14:38 35.918243 -115.149695 191 7288ft 271kts
04-Dec-17 14:39 35.848319 -115.168431 222 6977ft 240kts
04-Dec-17 14:40 35.843820 -115.241389 281 7012ft 224kts
04-Dec-17 14:41 35.877192 -115.294874 357 7012ft 216kts
04-Dec-17 14:42 35.925704 -115.262380 33 6163ft 178kts
04-Dec-17 14:43 35.962880 -115.233385 24 4472ft 145kts
04-Dec-17 14:44 35.997683 -115.213034 22 3829ft 135kts
04-Dec-17 14:45 36.029848 -115.195246 20 3360ft 130kts
04-Dec-17 14:46 36.061567 -115.178229 20 2528ft 126kts
04-Dec-17 14:47 36.089901 -115.162044 24 2120ft 58kts
04-Dec-17 14:48 36.093241 -115.158337 113 2120ft 0kts
04-Dec-17 14:49 36.093241 -115.158337 113 2120ft 0kts
04-Dec-17 14:50 36.092709 -115.156890 115 2120ft 17kts
04-Dec-17 14:51 36.090275 -115.156048 207 2120ft 5kts
04-Dec-17 14:52 36.088753 -115.156828 205 2120ft 8kts
04-Dec-17 14:53 36.085335 -115.157112 152 2120ft 14kts
04-Dec-17 14:54 36.083553 -115.155055 56 2120ft 9kts
04-Dec-17 14:55 36.084699 -115.154439 2 2120ft 0kts
04-Dec-17 14:56 36.084699 -115.154439 2 2120ft 0kts
04-Dec-17 14:57 36.084699 -115.154439 2 2120ft 0kts
04-Dec-17 14:58 36.084699 -115.154439 2 2120ft 0kts

Navigation Log

Ident Type
Flight plan parsing failed, navigation log unavailable